TAP13J LPPT-EIDW
Flight info
| Callsign | TAP13J |
|---|---|
| Flight time | 2h 14m |
| Altitude | 36000 |
| Route | IXIDA DCT PINEK DCT KORUL/N0447F350 DCT AMPOP/N0448F360 DCT UPCAB DCT IJALA DCT EVRIN DCT BUNED BUNED4L |
| Aircraft | E195/M-SDE3GILORVW/S |
Departure
| Time | 2026-05-06 10:53 |
|---|---|
| Airport | Lisbon Humberto Delgado Airport (LPPT) |
Arrival
| Time | 2026-05-06 13:07 |
|---|---|
| Airport | Dublin Airport (EIDW) |
| Time | Latitude | Longitude | Altitude | Speed | Heading |
|---|---|---|---|---|---|
| 2026-05-06 10:25 | 38.76981 | -9.13079 | 336 ft | 0 kts | 79° |
| 2026-05-06 10:43 | 38.76980 | -9.13087 | 333 ft | 4 kts | 79° |
| 2026-05-06 10:44 | 38.76979 | -9.13154 | 333 ft | 4 kts | 124° |
| 2026-05-06 10:44 | 38.76989 | -9.13166 | 336 ft | 0 kts | 168° |
| 2026-05-06 10:47 | 38.76988 | -9.13166 | 336 ft | 0 kts | 168° |
| 2026-05-06 10:47 | 38.76978 | -9.13164 | 335 ft | 3 kts | 169° |
| 2026-05-06 10:47 | 38.76937 | -9.13154 | 335 ft | 8 kts | 169° |
| 2026-05-06 10:48 | 38.76865 | -9.13135 | 337 ft | 13 kts | 168° |
| 2026-05-06 10:48 | 38.76796 | -9.13139 | 336 ft | 9 kts | 218° |
| 2026-05-06 10:48 | 38.76774 | -9.13206 | 338 ft | 8 kts | 258° |
| 2026-05-06 10:48 | 38.76762 | -9.13279 | 340 ft | 9 kts | 258° |
| 2026-05-06 10:49 | 38.76745 | -9.13367 | 345 ft | 11 kts | 243° |
| 2026-05-06 10:49 | 38.76684 | -9.13437 | 343 ft | 13 kts | 213° |
| 2026-05-06 10:49 | 38.76647 | -9.13533 | 347 ft | 12 kts | 258° |
| 2026-05-06 10:49 | 38.76628 | -9.13647 | 353 ft | 14 kts | 258° |
| 2026-05-06 10:50 | 38.76607 | -9.13776 | 344 ft | 16 kts | 259° |
| 2026-05-06 10:50 | 38.76584 | -9.13918 | 352 ft | 16 kts | 257° |
| 2026-05-06 10:50 | 38.76565 | -9.14009 | 350 ft | 9 kts | 250° |
| 2026-05-06 10:50 | 38.76528 | -9.14059 | 353 ft | 8 kts | 225° |
| 2026-05-06 10:51 | 38.76497 | -9.14131 | 352 ft | 11 kts | 258° |
| 2026-05-06 10:51 | 38.76524 | -9.14259 | 337 ft | 19 kts | 291° |
| 2026-05-06 10:51 | 38.76576 | -9.14389 | 334 ft | 14 kts | 323° |
| 2026-05-06 10:51 | 38.76630 | -9.14394 | 335 ft | 0 kts | 21° |
| 2026-05-06 10:52 | 38.76691 | -9.14364 | 335 ft | 34 kts | 22° |
| 2026-05-06 10:52 | 38.77109 | -9.14141 | 354 ft | 95 kts | 22° |
| 2026-05-06 10:52 | 38.77883 | -9.13728 | 367 ft | 149 kts | 22° |
| 2026-05-06 10:52 | 38.78947 | -9.13150 | 648 ft | 177 kts | 19° |
| 2026-05-06 10:53 | 38.80106 | -9.12442 | 1407 ft | 192 kts | 25° |
| 2026-05-06 10:53 | 38.81253 | -9.11588 | 2161 ft | 190 kts | 27° |
| 2026-05-06 10:53 | 38.82382 | -9.10710 | 2956 ft | 194 kts | 26° |
| 2026-05-06 10:53 | 38.83649 | -9.09990 | 3413 ft | 214 kts | 18° |
| 2026-05-06 10:54 | 38.85078 | -9.09217 | 3910 ft | 234 kts | 27° |
| 2026-05-06 10:54 | 38.86529 | -9.08013 | 4249 ft | 259 kts | 33° |
| 2026-05-06 10:54 | 38.88036 | -9.06703 | 5027 ft | 264 kts | 31° |
| 2026-05-06 10:54 | 38.89596 | -9.05455 | 5821 ft | 267 kts | 33° |
| 2026-05-06 10:55 | 38.91044 | -9.03953 | 6608 ft | 269 kts | 41° |
| 2026-05-06 10:55 | 38.92401 | -9.02286 | 7295 ft | 273 kts | 42° |
| 2026-05-06 10:55 | 38.93786 | -9.00594 | 7989 ft | 275 kts | 42° |
| 2026-05-06 10:55 | 38.95204 | -8.98917 | 8659 ft | 279 kts | 41° |
| 2026-05-06 10:56 | 38.96656 | -8.97219 | 9328 ft | 285 kts | 41° |
| 2026-05-06 10:56 | 38.98134 | -8.95495 | 10003 ft | 290 kts | 42° |
| 2026-05-06 10:56 | 38.99667 | -8.93709 | 10402 ft | 306 kts | 42° |
| 2026-05-06 10:56 | 39.01278 | -8.91831 | 10853 ft | 318 kts | 41° |
| 2026-05-06 10:57 | 39.02924 | -8.89904 | 11536 ft | 322 kts | 41° |
| 2026-05-06 10:57 | 39.04595 | -8.87948 | 12268 ft | 326 kts | 41° |
| 2026-05-06 10:57 | 39.06259 | -8.86004 | 13027 ft | 329 kts | 41° |
| 2026-05-06 10:57 | 39.07979 | -8.84004 | 13799 ft | 335 kts | 40° |
| 2026-05-06 10:58 | 39.09713 | -8.81976 | 14506 ft | 339 kts | 40° |
| 2026-05-06 10:58 | 39.11469 | -8.79918 | 15216 ft | 343 kts | 40° |
| 2026-05-06 10:58 | 39.13244 | -8.77834 | 15946 ft | 347 kts | 40° |
| 2026-05-06 10:58 | 39.15037 | -8.75724 | 16623 ft | 352 kts | 40° |
| 2026-05-06 10:59 | 39.16838 | -8.73557 | 17306 ft | 357 kts | 44° |
| 2026-05-06 10:59 | 39.18513 | -8.71160 | 17960 ft | 363 kts | 47° |
| 2026-05-06 10:59 | 39.20194 | -8.68686 | 18600 ft | 368 kts | 47° |
| 2026-05-06 10:59 | 39.21891 | -8.66194 | 19249 ft | 371 kts | 47° |
| 2026-05-06 11:00 | 39.23597 | -8.63687 | 19880 ft | 374 kts | 47° |
| 2026-05-06 11:00 | 39.25323 | -8.61151 | 20469 ft | 378 kts | 47° |
| 2026-05-06 11:00 | 39.26477 | -8.59457 | 20863 ft | 380 kts | 47° |
| 2026-05-06 11:00 | 39.28823 | -8.56010 | 21599 ft | 385 kts | 47° |
| 2026-05-06 11:01 | 39.29997 | -8.54283 | 21960 ft | 387 kts | 47° |
| 2026-05-06 11:01 | 39.31779 | -8.51660 | 22487 ft | 390 kts | 47° |
| 2026-05-06 11:01 | 39.33574 | -8.49015 | 23023 ft | 393 kts | 47° |
| 2026-05-06 11:01 | 39.35382 | -8.46349 | 23560 ft | 397 kts | 47° |
| 2026-05-06 11:02 | 39.37206 | -8.43656 | 24042 ft | 399 kts | 47° |
| 2026-05-06 11:02 | 39.39169 | -8.41112 | 24492 ft | 400 kts | 36° |
| 2026-05-06 11:02 | 39.41583 | -8.39374 | 24939 ft | 397 kts | 15° |
| 2026-05-06 11:02 | 39.44298 | -8.38883 | 25411 ft | 393 kts | 356° |
| 2026-05-06 11:03 | 39.47031 | -8.39017 | 25864 ft | 395 kts | 354° |
| 2026-05-06 11:03 | 39.49788 | -8.39206 | 26301 ft | 398 kts | 354° |
| 2026-05-06 11:03 | 39.52566 | -8.39386 | 26773 ft | 400 kts | 354° |
| 2026-05-06 11:03 | 39.55353 | -8.39562 | 27182 ft | 403 kts | 354° |
| 2026-05-06 11:04 | 39.58160 | -8.39751 | 27579 ft | 406 kts | 354° |
| 2026-05-06 11:04 | 39.60988 | -8.39942 | 27970 ft | 408 kts | 354° |
| 2026-05-06 11:04 | 39.63833 | -8.40135 | 28367 ft | 410 kts | 354° |
| 2026-05-06 11:04 | 39.66696 | -8.40328 | 28745 ft | 413 kts | 354° |
| 2026-05-06 11:05 | 39.69571 | -8.40527 | 29202 ft | 413 kts | 354° |
| 2026-05-06 11:05 | 39.72435 | -8.40713 | 29750 ft | 411 kts | 355° |
| 2026-05-06 11:05 | 39.75287 | -8.40889 | 30261 ft | 409 kts | 355° |
| 2026-05-06 11:05 | 39.78126 | -8.41073 | 30629 ft | 409 kts | 354° |
| 2026-05-06 11:06 | 39.80971 | -8.41275 | 30980 ft | 409 kts | 354° |
| 2026-05-06 11:06 | 39.83816 | -8.41478 | 31346 ft | 409 kts | 354° |
| 2026-05-06 11:06 | 39.86648 | -8.41686 | 31690 ft | 408 kts | 354° |
| 2026-05-06 11:06 | 39.89485 | -8.41899 | 32023 ft | 408 kts | 354° |
| 2026-05-06 11:07 | 39.92318 | -8.42110 | 32342 ft | 408 kts | 354° |
| 2026-05-06 11:07 | 39.95152 | -8.42325 | 32661 ft | 407 kts | 353° |
| 2026-05-06 11:07 | 39.97936 | -8.42537 | 32996 ft | 406 kts | 353° |
| 2026-05-06 11:07 | 40.00753 | -8.42753 | 33284 ft | 405 kts | 353° |
| 2026-05-06 11:08 | 40.03562 | -8.42975 | 33545 ft | 405 kts | 353° |
| 2026-05-06 11:08 | 40.06381 | -8.43203 | 33815 ft | 405 kts | 353° |
| 2026-05-06 11:08 | 40.09195 | -8.43430 | 34086 ft | 405 kts | 353° |
| 2026-05-06 11:08 | 40.12006 | -8.43657 | 34304 ft | 405 kts | 353° |
| 2026-05-06 11:09 | 40.14820 | -8.43890 | 34488 ft | 405 kts | 353° |
| 2026-05-06 11:09 | 40.17633 | -8.44125 | 34701 ft | 405 kts | 353° |
| 2026-05-06 11:09 | 40.20437 | -8.44361 | 34901 ft | 405 kts | 353° |
| 2026-05-06 11:09 | 40.23247 | -8.44596 | 35090 ft | 404 kts | 353° |
| 2026-05-06 11:10 | 40.26057 | -8.44832 | 35277 ft | 405 kts | 353° |
| 2026-05-06 11:10 | 40.28871 | -8.45071 | 35469 ft | 405 kts | 353° |
| 2026-05-06 11:10 | 40.31681 | -8.45311 | 35654 ft | 405 kts | 353° |
| 2026-05-06 11:10 | 40.34487 | -8.45553 | 35826 ft | 405 kts | 353° |
| 2026-05-06 11:11 | 40.37293 | -8.45795 | 36169 ft | 400 kts | 353° |
| 2026-05-06 11:11 | 40.42909 | -8.46296 | 36159 ft | 410 kts | 352° |
| 2026-05-06 11:11 | 40.45784 | -8.46579 | 36024 ft | 418 kts | 352° |
| 2026-05-06 11:12 | 40.48699 | -8.46876 | 36035 ft | 423 kts | 352° |
| 2026-05-06 11:12 | 40.54633 | -8.47438 | 36021 ft | 432 kts | 353° |
| 2026-05-06 11:13 | 40.60700 | -8.48011 | 36015 ft | 442 kts | 353° |
| 2026-05-06 11:13 | 40.66895 | -8.48602 | 36029 ft | 449 kts | 353° |
| 2026-05-06 11:14 | 40.73107 | -8.49191 | 36014 ft | 451 kts | 353° |
| 2026-05-06 11:14 | 40.79365 | -8.49784 | 36023 ft | 451 kts | 353° |
| 2026-05-06 11:15 | 40.85666 | -8.50387 | 36008 ft | 451 kts | 353° |
| 2026-05-06 11:15 | 40.91880 | -8.50981 | 36011 ft | 451 kts | 353° |
| 2026-05-06 11:16 | 40.98141 | -8.51579 | 36021 ft | 451 kts | 353° |
| 2026-05-06 11:16 | 41.04405 | -8.52179 | 36035 ft | 452 kts | 353° |
| 2026-05-06 11:17 | 41.10671 | -8.52783 | 36028 ft | 451 kts | 353° |
| 2026-05-06 11:17 | 41.16929 | -8.53384 | 36019 ft | 451 kts | 353° |
| 2026-05-06 11:18 | 41.23195 | -8.53988 | 36029 ft | 451 kts | 353° |
| 2026-05-06 11:18 | 41.29463 | -8.54593 | 36020 ft | 451 kts | 353° |
| 2026-05-06 11:19 | 41.35721 | -8.55198 | 36026 ft | 451 kts | 353° |
| 2026-05-06 11:19 | 41.41984 | -8.55804 | 36031 ft | 451 kts | 353° |
| 2026-05-06 11:20 | 41.48243 | -8.56413 | 36022 ft | 451 kts | 353° |
| 2026-05-06 11:20 | 41.54498 | -8.57021 | 36032 ft | 451 kts | 353° |
| 2026-05-06 11:21 | 41.60751 | -8.57632 | 36030 ft | 451 kts | 353° |
| 2026-05-06 11:21 | 41.67006 | -8.58242 | 36046 ft | 451 kts | 353° |
| 2026-05-06 11:22 | 41.73261 | -8.58855 | 36032 ft | 450 kts | 353° |
| 2026-05-06 11:22 | 41.79468 | -8.59463 | 36033 ft | 450 kts | 353° |
| 2026-05-06 11:23 | 41.85728 | -8.59697 | 36071 ft | 454 kts | 7° |
| 2026-05-06 11:23 | 41.88778 | -8.58515 | 36111 ft | 457 kts | 19° |
| 2026-05-06 11:23 | 41.91738 | -8.56929 | 36004 ft | 459 kts | 20° |
| 2026-05-06 11:24 | 41.97639 | -8.53664 | 36035 ft | 459 kts | 20° |
| 2026-05-06 11:24 | 42.03554 | -8.50451 | 36035 ft | 458 kts | 20° |
| 2026-05-06 11:25 | 42.09468 | -8.47246 | 36055 ft | 459 kts | 20° |
| 2026-05-06 11:25 | 42.15375 | -8.44042 | 36034 ft | 457 kts | 20° |
| 2026-05-06 11:26 | 42.21276 | -8.40830 | 36038 ft | 458 kts | 20° |
| 2026-05-06 11:26 | 42.27142 | -8.37631 | 36051 ft | 458 kts | 20° |
| 2026-05-06 11:27 | 42.33049 | -8.34408 | 36042 ft | 457 kts | 20° |
| 2026-05-06 11:27 | 42.38930 | -8.31190 | 36051 ft | 456 kts | 20° |
| 2026-05-06 11:28 | 42.44805 | -8.27971 | 36057 ft | 456 kts | 20° |
| 2026-05-06 11:28 | 42.50692 | -8.24739 | 36051 ft | 456 kts | 20° |
| 2026-05-06 11:29 | 42.56578 | -8.21499 | 36056 ft | 456 kts | 20° |
| 2026-05-06 11:29 | 42.62458 | -8.18255 | 36056 ft | 456 kts | 20° |
| 2026-05-06 11:30 | 42.68340 | -8.15005 | 36054 ft | 456 kts | 20° |
| 2026-05-06 11:30 | 42.74222 | -8.11748 | 36063 ft | 456 kts | 20° |
| 2026-05-06 11:31 | 42.80049 | -8.08514 | 36056 ft | 455 kts | 20° |
| 2026-05-06 11:31 | 42.85914 | -8.05254 | 36045 ft | 455 kts | 20° |
| 2026-05-06 11:32 | 42.91779 | -8.01986 | 36063 ft | 455 kts | 20° |
| 2026-05-06 11:32 | 42.97639 | -7.98714 | 36052 ft | 455 kts | 20° |
| 2026-05-06 11:33 | 43.03492 | -7.95438 | 36065 ft | 455 kts | 20° |
| 2026-05-06 11:33 | 43.09350 | -7.92156 | 36058 ft | 455 kts | 20° |
| 2026-05-06 11:34 | 43.15206 | -7.88866 | 36055 ft | 455 kts | 20° |
| 2026-05-06 11:34 | 43.21053 | -7.85574 | 36053 ft | 454 kts | 20° |
| 2026-05-06 11:35 | 43.26859 | -7.82299 | 36056 ft | 454 kts | 20° |
| 2026-05-06 11:35 | 43.32703 | -7.78995 | 36059 ft | 454 kts | 20° |
| 2026-05-06 11:36 | 43.38543 | -7.75686 | 36059 ft | 454 kts | 20° |
| 2026-05-06 11:36 | 43.44376 | -7.72373 | 36065 ft | 454 kts | 20° |
| 2026-05-06 11:37 | 43.50214 | -7.69054 | 36060 ft | 454 kts | 20° |
| 2026-05-06 11:37 | 43.56048 | -7.65726 | 36062 ft | 454 kts | 20° |
| 2026-05-06 11:38 | 43.61874 | -7.62400 | 36063 ft | 453 kts | 20° |
| 2026-05-06 11:38 | 43.67702 | -7.59065 | 36060 ft | 452 kts | 20° |
| 2026-05-06 11:39 | 43.73503 | -7.55737 | 36062 ft | 451 kts | 20° |
| 2026-05-06 11:39 | 43.79305 | -7.52401 | 36066 ft | 452 kts | 20° |
| 2026-05-06 11:40 | 43.85103 | -7.49061 | 36062 ft | 451 kts | 20° |
| 2026-05-06 11:40 | 43.90895 | -7.45719 | 36063 ft | 451 kts | 20° |
| 2026-05-06 11:41 | 43.96691 | -7.42364 | 36060 ft | 451 kts | 21° |
| 2026-05-06 11:41 | 44.02486 | -7.39007 | 36062 ft | 451 kts | 21° |
| 2026-05-06 11:42 | 44.08284 | -7.35639 | 36058 ft | 451 kts | 21° |
| 2026-05-06 11:42 | 44.14082 | -7.32266 | 36057 ft | 451 kts | 21° |
| 2026-05-06 11:43 | 44.19866 | -7.28889 | 36057 ft | 451 kts | 21° |
| 2026-05-06 11:43 | 44.25656 | -7.25504 | 36059 ft | 451 kts | 21° |
| 2026-05-06 11:44 | 44.34298 | -7.20438 | 36049 ft | 451 kts | 21° |
| 2026-05-06 11:44 | 44.40087 | -7.17038 | 36058 ft | 451 kts | 21° |
| 2026-05-06 11:45 | 44.45872 | -7.13631 | 36055 ft | 451 kts | 21° |
| 2026-05-06 11:45 | 44.51655 | -7.10213 | 36056 ft | 451 kts | 21° |
| 2026-05-06 11:46 | 44.57445 | -7.06787 | 36055 ft | 451 kts | 21° |
| 2026-05-06 11:46 | 44.63229 | -7.03361 | 36055 ft | 451 kts | 21° |
| 2026-05-06 11:47 | 44.68970 | -6.99944 | 36058 ft | 451 kts | 21° |
| 2026-05-06 11:47 | 44.74750 | -6.96504 | 36050 ft | 451 kts | 21° |
| 2026-05-06 11:48 | 44.80534 | -6.93056 | 36044 ft | 451 kts | 21° |
| 2026-05-06 11:48 | 44.85490 | -6.90958 | 36061 ft | 447 kts | 6° |
| 2026-05-06 11:49 | 44.91685 | -6.90044 | 36035 ft | 448 kts | 4° |
| 2026-05-06 11:49 | 44.97879 | -6.89174 | 36048 ft | 447 kts | 4° |
| 2026-05-06 11:50 | 45.04078 | -6.88269 | 36042 ft | 447 kts | 5° |
| 2026-05-06 11:50 | 45.10271 | -6.87358 | 36048 ft | 447 kts | 5° |
| 2026-05-06 11:51 | 45.16466 | -6.86443 | 36051 ft | 448 kts | 5° |
| 2026-05-06 11:51 | 45.22659 | -6.85525 | 36052 ft | 447 kts | 5° |
| 2026-05-06 11:52 | 45.28857 | -6.84605 | 36055 ft | 447 kts | 5° |
| 2026-05-06 11:52 | 45.35000 | -6.83692 | 36057 ft | 447 kts | 5° |
| 2026-05-06 11:53 | 45.41189 | -6.82769 | 36045 ft | 447 kts | 5° |
| 2026-05-06 11:53 | 45.47376 | -6.81845 | 36049 ft | 447 kts | 5° |
| 2026-05-06 11:54 | 45.53563 | -6.80919 | 36054 ft | 447 kts | 5° |
| 2026-05-06 11:54 | 45.59750 | -6.79991 | 36048 ft | 447 kts | 5° |
| 2026-05-06 11:55 | 45.65942 | -6.79060 | 36053 ft | 447 kts | 5° |
| 2026-05-06 11:55 | 45.72134 | -6.78127 | 36055 ft | 447 kts | 5° |
| 2026-05-06 11:56 | 45.78286 | -6.77198 | 36055 ft | 447 kts | 5° |
| 2026-05-06 11:56 | 45.84471 | -6.76261 | 36059 ft | 447 kts | 5° |
| 2026-05-06 11:57 | 45.90655 | -6.75322 | 36058 ft | 447 kts | 5° |
| 2026-05-06 11:57 | 45.96839 | -6.74382 | 36057 ft | 447 kts | 5° |
| 2026-05-06 11:58 | 46.03018 | -6.73440 | 36056 ft | 446 kts | 5° |
| 2026-05-06 11:58 | 46.09185 | -6.72498 | 36049 ft | 446 kts | 5° |
| 2026-05-06 11:59 | 46.15348 | -6.71555 | 36053 ft | 446 kts | 5° |
| 2026-05-06 11:59 | 46.21519 | -6.70608 | 36053 ft | 446 kts | 5° |
| 2026-05-06 12:00 | 46.27689 | -6.69658 | 36058 ft | 446 kts | 5° |
| 2026-05-06 12:00 | 46.33860 | -6.68708 | 36056 ft | 446 kts | 5° |
| 2026-05-06 12:01 | 46.40029 | -6.67755 | 36050 ft | 446 kts | 5° |
| 2026-05-06 12:01 | 46.46195 | -6.66800 | 36050 ft | 446 kts | 5° |
| 2026-05-06 12:02 | 46.52364 | -6.65843 | 36053 ft | 446 kts | 5° |
| 2026-05-06 12:02 | 46.58533 | -6.64883 | 36053 ft | 446 kts | 5° |
| 2026-05-06 12:03 | 46.64656 | -6.63929 | 36049 ft | 446 kts | 5° |
| 2026-05-06 12:03 | 46.70827 | -6.62964 | 36049 ft | 446 kts | 5° |
| 2026-05-06 12:04 | 46.76995 | -6.61998 | 36049 ft | 446 kts | 5° |
| 2026-05-06 12:04 | 46.83162 | -6.61029 | 36039 ft | 445 kts | 5° |
| 2026-05-06 12:05 | 46.89327 | -6.60059 | 36045 ft | 446 kts | 5° |
| 2026-05-06 12:05 | 46.95494 | -6.59087 | 36050 ft | 446 kts | 5° |
| 2026-05-06 12:06 | 47.01658 | -6.58113 | 36044 ft | 445 kts | 5° |
| 2026-05-06 12:06 | 47.07816 | -6.57137 | 36043 ft | 445 kts | 5° |
| 2026-05-06 12:07 | 47.13979 | -6.56158 | 36042 ft | 445 kts | 5° |
| 2026-05-06 12:07 | 47.20130 | -6.55179 | 36046 ft | 445 kts | 5° |
| 2026-05-06 12:08 | 47.26245 | -6.54203 | 36041 ft | 445 kts | 5° |
| 2026-05-06 12:08 | 47.32401 | -6.53219 | 36041 ft | 445 kts | 5° |
| 2026-05-06 12:09 | 47.38563 | -6.52231 | 36040 ft | 445 kts | 5° |
| 2026-05-06 12:09 | 47.44718 | -6.51242 | 36040 ft | 445 kts | 5° |
| 2026-05-06 12:10 | 47.50867 | -6.50251 | 36038 ft | 445 kts | 5° |
| 2026-05-06 12:10 | 47.57014 | -6.49259 | 36039 ft | 445 kts | 5° |
| 2026-05-06 12:11 | 47.63173 | -6.48262 | 36040 ft | 444 kts | 5° |
| 2026-05-06 12:11 | 47.69315 | -6.47266 | 36038 ft | 444 kts | 5° |
| 2026-05-06 12:12 | 47.75457 | -6.46267 | 36042 ft | 444 kts | 5° |
| 2026-05-06 12:12 | 47.81601 | -6.45266 | 36041 ft | 444 kts | 5° |
| 2026-05-06 12:13 | 47.87739 | -6.44263 | 36041 ft | 444 kts | 5° |
| 2026-05-06 12:13 | 47.93892 | -6.43256 | 36035 ft | 444 kts | 5° |
| 2026-05-06 12:14 | 48.00035 | -6.42247 | 36033 ft | 444 kts | 5° |
| 2026-05-06 12:14 | 48.06165 | -6.41239 | 36031 ft | 445 kts | 5° |
| 2026-05-06 12:15 | 48.12283 | -6.40229 | 36040 ft | 445 kts | 5° |
| 2026-05-06 12:15 | 48.18430 | -6.39212 | 36035 ft | 444 kts | 5° |
| 2026-05-06 12:16 | 48.24570 | -6.38195 | 36036 ft | 444 kts | 5° |
| 2026-05-06 12:16 | 48.30717 | -6.37173 | 36038 ft | 445 kts | 5° |
| 2026-05-06 12:17 | 48.36863 | -6.36150 | 36034 ft | 445 kts | 5° |
| 2026-05-06 12:17 | 48.43014 | -6.35123 | 36033 ft | 445 kts | 5° |
| 2026-05-06 12:18 | 48.49167 | -6.34093 | 36040 ft | 445 kts | 5° |
| 2026-05-06 12:18 | 48.55326 | -6.33060 | 36037 ft | 445 kts | 5° |
| 2026-05-06 12:19 | 48.61484 | -6.32025 | 36034 ft | 445 kts | 5° |
| 2026-05-06 12:19 | 48.67644 | -6.30986 | 36034 ft | 445 kts | 5° |
| 2026-05-06 12:20 | 48.73763 | -6.29952 | 36035 ft | 445 kts | 5° |
| 2026-05-06 12:20 | 48.79923 | -6.28909 | 36032 ft | 445 kts | 5° |
| 2026-05-06 12:21 | 48.86082 | -6.27863 | 36030 ft | 445 kts | 5° |
| 2026-05-06 12:21 | 48.92243 | -6.26814 | 36035 ft | 446 kts | 5° |
| 2026-05-06 12:22 | 48.98413 | -6.25761 | 36029 ft | 446 kts | 5° |
| 2026-05-06 12:22 | 49.04583 | -6.24705 | 36035 ft | 446 kts | 5° |
| 2026-05-06 12:23 | 49.10754 | -6.23648 | 36029 ft | 446 kts | 5° |
| 2026-05-06 12:23 | 49.16921 | -6.22586 | 36038 ft | 447 kts | 5° |
| 2026-05-06 12:24 | 49.23100 | -6.21521 | 36029 ft | 447 kts | 5° |
| 2026-05-06 12:24 | 49.29264 | -6.20454 | 36027 ft | 446 kts | 5° |
| 2026-05-06 12:25 | 49.35432 | -6.19385 | 36029 ft | 446 kts | 5° |
| 2026-05-06 12:25 | 49.41603 | -6.18315 | 36031 ft | 447 kts | 5° |
| 2026-05-06 12:26 | 49.47780 | -6.17242 | 36026 ft | 447 kts | 5° |
| 2026-05-06 12:26 | 49.53957 | -6.16414 | 36051 ft | 444 kts | 356° |
| 2026-05-06 12:27 | 49.60088 | -6.17040 | 36010 ft | 445 kts | 354° |
| 2026-05-06 12:27 | 49.66256 | -6.17780 | 36019 ft | 444 kts | 354° |
| 2026-05-06 12:28 | 49.72420 | -6.18487 | 36023 ft | 445 kts | 354° |
| 2026-05-06 12:28 | 49.78595 | -6.19189 | 36023 ft | 445 kts | 354° |
| 2026-05-06 12:29 | 49.84776 | -6.19894 | 36023 ft | 445 kts | 354° |
| 2026-05-06 12:29 | 49.90951 | -6.20601 | 36021 ft | 445 kts | 354° |
| 2026-05-06 12:30 | 49.97125 | -6.21308 | 36037 ft | 445 kts | 354° |
| 2026-05-06 12:30 | 50.03299 | -6.22016 | 36044 ft | 445 kts | 354° |
| 2026-05-06 12:31 | 50.09466 | -6.22726 | 36033 ft | 445 kts | 354° |
| 2026-05-06 12:31 | 50.15643 | -6.23439 | 36030 ft | 445 kts | 354° |
| 2026-05-06 12:32 | 50.21816 | -6.24155 | 36032 ft | 445 kts | 354° |
| 2026-05-06 12:32 | 50.27985 | -6.24871 | 36027 ft | 445 kts | 354° |
| 2026-05-06 12:33 | 50.34112 | -6.25584 | 36033 ft | 444 kts | 354° |
| 2026-05-06 12:33 | 50.40287 | -6.26304 | 36033 ft | 445 kts | 354° |
| 2026-05-06 12:34 | 50.46458 | -6.27026 | 36036 ft | 445 kts | 354° |
| 2026-05-06 12:34 | 50.52625 | -6.27749 | 36034 ft | 444 kts | 354° |
| 2026-05-06 12:35 | 50.58787 | -6.28474 | 36034 ft | 444 kts | 353° |
| 2026-05-06 12:35 | 50.64951 | -6.29201 | 36031 ft | 444 kts | 353° |
| 2026-05-06 12:36 | 50.71115 | -6.29929 | 36044 ft | 444 kts | 354° |
| 2026-05-06 12:36 | 50.76234 | -6.30535 | 36041 ft | 444 kts | 354° |
| 2026-05-06 12:37 | 50.82405 | -6.31268 | 36037 ft | 444 kts | 354° |
| 2026-05-06 12:37 | 50.88569 | -6.32003 | 36037 ft | 444 kts | 353° |
| 2026-05-06 12:38 | 50.94655 | -6.33505 | 36041 ft | 443 kts | 347° |
| 2026-05-06 12:38 | 51.00709 | -6.35288 | 36038 ft | 442 kts | 347° |
| 2026-05-06 12:39 | 51.06763 | -6.37043 | 36035 ft | 442 kts | 348° |
| 2026-05-06 12:39 | 51.12815 | -6.38791 | 36036 ft | 442 kts | 348° |
| 2026-05-06 12:40 | 51.18879 | -6.40543 | 36033 ft | 442 kts | 348° |
| 2026-05-06 12:40 | 51.24924 | -6.42295 | 36039 ft | 442 kts | 348° |
| 2026-05-06 12:41 | 51.30938 | -6.44008 | 36040 ft | 442 kts | 349° |
| 2026-05-06 12:41 | 51.37018 | -6.45523 | 36041 ft | 442 kts | 349° |
| 2026-05-06 12:42 | 51.43090 | -6.47056 | 36036 ft | 441 kts | 349° |
| 2026-05-06 12:42 | 51.49152 | -6.48610 | 36042 ft | 441 kts | 349° |
| 2026-05-06 12:43 | 51.55214 | -6.50170 | 36041 ft | 441 kts | 349° |
| 2026-05-06 12:43 | 51.61273 | -6.51735 | 36041 ft | 441 kts | 349° |
| 2026-05-06 12:44 | 51.67331 | -6.53300 | 36042 ft | 440 kts | 348° |
| 2026-05-06 12:44 | 51.73383 | -6.54872 | 36041 ft | 440 kts | 348° |
| 2026-05-06 12:45 | 51.79449 | -6.56217 | 36070 ft | 442 kts | 354° |
| 2026-05-06 12:46 | 51.88682 | -6.56947 | 36034 ft | 442 kts | 355° |
| 2026-05-06 12:46 | 51.94824 | -6.57414 | 35661 ft | 438 kts | 355° |
| 2026-05-06 12:46 | 51.97821 | -6.57639 | 35447 ft | 424 kts | 354° |
| 2026-05-06 12:47 | 52.00757 | -6.57865 | 34801 ft | 422 kts | 354° |
| 2026-05-06 12:47 | 52.03674 | -6.58091 | 34268 ft | 417 kts | 354° |
| 2026-05-06 12:47 | 52.06563 | -6.58314 | 33641 ft | 414 kts | 354° |
| 2026-05-06 12:47 | 52.09408 | -6.58535 | 33156 ft | 406 kts | 354° |
| 2026-05-06 12:48 | 52.12217 | -6.58749 | 32600 ft | 401 kts | 354° |
| 2026-05-06 12:48 | 52.14985 | -6.58964 | 32082 ft | 396 kts | 354° |
| 2026-05-06 12:48 | 52.17723 | -6.59178 | 31568 ft | 391 kts | 354° |
| 2026-05-06 12:48 | 52.20396 | -6.59389 | 31037 ft | 390 kts | 354° |
| 2026-05-06 12:49 | 52.23120 | -6.59606 | 30541 ft | 394 kts | 354° |
| 2026-05-06 12:49 | 52.25881 | -6.59828 | 29965 ft | 400 kts | 354° |
| 2026-05-06 12:49 | 52.28705 | -6.60054 | 29472 ft | 402 kts | 354° |
| 2026-05-06 12:49 | 52.31514 | -6.60273 | 28889 ft | 405 kts | 354° |
| 2026-05-06 12:50 | 52.34285 | -6.60492 | 28386 ft | 405 kts | 355° |
| 2026-05-06 12:50 | 52.37094 | -6.60714 | 27824 ft | 402 kts | 355° |
| 2026-05-06 12:50 | 52.39867 | -6.60929 | 27290 ft | 397 kts | 355° |
| 2026-05-06 12:50 | 52.42613 | -6.61149 | 26783 ft | 392 kts | 355° |
| 2026-05-06 12:51 | 52.45327 | -6.61367 | 26238 ft | 389 kts | 355° |
| 2026-05-06 12:51 | 52.48019 | -6.61585 | 25746 ft | 386 kts | 355° |
| 2026-05-06 12:51 | 52.50699 | -6.61800 | 25213 ft | 383 kts | 355° |
| 2026-05-06 12:51 | 52.53353 | -6.62017 | 24714 ft | 381 kts | 355° |
| 2026-05-06 12:52 | 52.55992 | -6.62231 | 24208 ft | 378 kts | 355° |
| 2026-05-06 12:52 | 52.58613 | -6.62443 | 23718 ft | 376 kts | 355° |
| 2026-05-06 12:52 | 52.61214 | -6.62657 | 23177 ft | 372 kts | 355° |
| 2026-05-06 12:52 | 52.63776 | -6.62863 | 22831 ft | 366 kts | 355° |
| 2026-05-06 12:53 | 52.66317 | -6.63088 | 22459 ft | 365 kts | 354° |
| 2026-05-06 12:53 | 52.68849 | -6.63319 | 22163 ft | 365 kts | 354° |
| 2026-05-06 12:53 | 52.71356 | -6.63545 | 21814 ft | 366 kts | 354° |
| 2026-05-06 12:53 | 52.73892 | -6.63770 | 21492 ft | 364 kts | 355° |
| 2026-05-06 12:54 | 52.76423 | -6.63995 | 21163 ft | 363 kts | 355° |
| 2026-05-06 12:54 | 52.78934 | -6.64215 | 20835 ft | 361 kts | 355° |
| 2026-05-06 12:54 | 52.81441 | -6.64440 | 20507 ft | 359 kts | 355° |
| 2026-05-06 12:54 | 52.83931 | -6.64662 | 20169 ft | 358 kts | 354° |
| 2026-05-06 12:55 | 52.86420 | -6.64869 | 19721 ft | 358 kts | 356° |
| 2026-05-06 12:55 | 52.88943 | -6.64895 | 18751 ft | 360 kts | 355° |
| 2026-05-06 12:55 | 52.91343 | -6.65808 | 17512 ft | 352 kts | 335° |
| 2026-05-06 12:55 | 52.93503 | -6.67646 | 16206 ft | 348 kts | 328° |
| 2026-05-06 12:56 | 52.95589 | -6.69690 | 14887 ft | 348 kts | 328° |
| 2026-05-06 12:56 | 52.97658 | -6.71562 | 14230 ft | 329 kts | 334° |
| 2026-05-06 12:56 | 52.99836 | -6.72724 | 13357 ft | 322 kts | 337° |
| 2026-05-06 12:56 | 53.01792 | -6.74260 | 12849 ft | 301 kts | 329° |
| 2026-05-06 12:57 | 53.03585 | -6.75876 | 12425 ft | 287 kts | 330° |
| 2026-05-06 12:57 | 53.05355 | -6.77382 | 12066 ft | 285 kts | 332° |
| 2026-05-06 12:57 | 53.07144 | -6.78823 | 11802 ft | 288 kts | 332° |
| 2026-05-06 12:57 | 53.08979 | -6.80275 | 11615 ft | 293 kts | 332° |
| 2026-05-06 12:58 | 53.10826 | -6.81717 | 11347 ft | 293 kts | 333° |
| 2026-05-06 12:58 | 53.12817 | -6.82664 | 10518 ft | 309 kts | 355° |
| 2026-05-06 12:58 | 53.14947 | -6.82060 | 9727 ft | 319 kts | 19° |
| 2026-05-06 12:58 | 53.16902 | -6.80595 | 9323 ft | 298 kts | 23° |
| 2026-05-06 12:59 | 53.18749 | -6.79269 | 8952 ft | 284 kts | 20° |
| 2026-05-06 12:59 | 53.20597 | -6.78137 | 8552 ft | 284 kts | 18° |
| 2026-05-06 12:59 | 53.22488 | -6.77052 | 8214 ft | 289 kts | 18° |
| 2026-05-06 12:59 | 53.24399 | -6.75984 | 7787 ft | 289 kts | 18° |
| 2026-05-06 13:00 | 53.26301 | -6.74930 | 7403 ft | 286 kts | 18° |
| 2026-05-06 13:00 | 53.28185 | -6.73898 | 7026 ft | 284 kts | 18° |
| 2026-05-06 13:00 | 53.30058 | -6.72880 | 6650 ft | 282 kts | 18° |
| 2026-05-06 13:00 | 53.31919 | -6.71872 | 6264 ft | 280 kts | 18° |
| 2026-05-06 13:01 | 53.33764 | -6.70878 | 5912 ft | 277 kts | 18° |
| 2026-05-06 13:01 | 53.35592 | -6.69896 | 5534 ft | 275 kts | 18° |
| 2026-05-06 13:01 | 53.37400 | -6.68873 | 5091 ft | 273 kts | 24° |
| 2026-05-06 13:01 | 53.38858 | -6.66989 | 4670 ft | 263 kts | 54° |
| 2026-05-06 13:02 | 53.39630 | -6.64191 | 4437 ft | 268 kts | 71° |
| 2026-05-06 13:02 | 53.40206 | -6.61196 | 4041 ft | 268 kts | 72° |
| 2026-05-06 13:02 | 53.40785 | -6.58311 | 3654 ft | 254 kts | 70° |
| 2026-05-06 13:02 | 53.41416 | -6.55612 | 3384 ft | 247 kts | 66° |
| 2026-05-06 13:03 | 53.42186 | -6.53067 | 3045 ft | 243 kts | 55° |
| 2026-05-06 13:03 | 53.43181 | -6.50915 | 2928 ft | 224 kts | 52° |
| 2026-05-06 13:03 | 53.44087 | -6.48825 | 2797 ft | 223 kts | 59° |
| 2026-05-06 13:03 | 53.44636 | -6.46364 | 2402 ft | 228 kts | 82° |
| 2026-05-06 13:04 | 53.44567 | -6.43745 | 2074 ft | 218 kts | 100° |
| 2026-05-06 13:04 | 53.44367 | -6.41355 | 1833 ft | 196 kts | 93° |
| 2026-05-06 13:04 | 53.44325 | -6.39211 | 1604 ft | 178 kts | 92° |
| 2026-05-06 13:04 | 53.44216 | -6.37219 | 1371 ft | 165 kts | 97° |
| 2026-05-06 13:05 | 53.44097 | -6.35382 | 1122 ft | 152 kts | 94° |
| 2026-05-06 13:05 | 53.44021 | -6.33678 | 917 ft | 141 kts | 94° |
| 2026-05-06 13:05 | 53.43932 | -6.32079 | 729 ft | 135 kts | 95° |
| 2026-05-06 13:05 | 53.43850 | -6.30552 | 557 ft | 129 kts | 95° |
| 2026-05-06 13:06 | 53.43771 | -6.29059 | 382 ft | 126 kts | 94° |
| 2026-05-06 13:06 | 53.43689 | -6.27640 | 218 ft | 117 kts | 96° |
| 2026-05-06 13:06 | 53.43625 | -6.26527 | 210 ft | 72 kts | 96° |
| 2026-05-06 13:06 | 53.43594 | -6.25848 | 209 ft | 54 kts | 94° |
| 2026-05-06 13:07 | 53.43559 | -6.25378 | 214 ft | 34 kts | 107° |
| 2026-05-06 13:07 | 53.43469 | -6.25053 | 219 ft | 21 kts | 120° |
| 2026-05-06 13:07 | 53.43450 | -6.25003 | 213 ft | 1 kts | 124° |
| 2026-05-06 13:07 | 53.43439 | -6.24992 | 213 ft | 3 kts | 153° |
| 2026-05-06 13:08 | 53.43416 | -6.24990 | 210 ft | 4 kts | 189° |
| 2026-05-06 13:08 | 53.43388 | -6.25022 | 215 ft | 6 kts | 229° |
| 2026-05-06 13:08 | 53.43381 | -6.25096 | 210 ft | 7 kts | 271° |
| 2026-05-06 13:08 | 53.43387 | -6.25191 | 218 ft | 9 kts | 277° |
| 2026-05-06 13:09 | 53.43395 | -6.25308 | 211 ft | 11 kts | 276° |
| 2026-05-06 13:09 | 53.43404 | -6.25444 | 213 ft | 13 kts | 275° |
| 2026-05-06 13:09 | 53.43406 | -6.25596 | 209 ft | 9 kts | 267° |
| 2026-05-06 13:09 | 53.43361 | -6.25649 | 211 ft | 9 kts | 173° |
| 2026-05-06 13:10 | 53.43298 | -6.25609 | 215 ft | 10 kts | 156° |
| 2026-05-06 13:10 | 53.43228 | -6.25557 | 210 ft | 11 kts | 156° |
| 2026-05-06 13:10 | 53.43184 | -6.25524 | 212 ft | 6 kts | 156° |
| 2026-05-06 13:10 | 53.43142 | -6.25493 | 210 ft | 7 kts | 156° |
| 2026-05-06 13:11 | 53.43089 | -6.25458 | 218 ft | 9 kts | 158° |
| 2026-05-06 13:11 | 53.43028 | -6.25412 | 211 ft | 10 kts | 155° |
| 2026-05-06 13:11 | 53.42994 | -6.25387 | 216 ft | 5 kts | 156° |
| 2026-05-06 13:11 | 53.42953 | -6.25356 | 214 ft | 8 kts | 156° |
| 2026-05-06 13:12 | 53.42909 | -6.25325 | 213 ft | 7 kts | 157° |
| 2026-05-06 13:12 | 53.42854 | -6.25285 | 210 ft | 11 kts | 157° |
| 2026-05-06 13:12 | 53.42796 | -6.25195 | 217 ft | 13 kts | 104° |
| 2026-05-06 13:12 | 53.42810 | -6.25049 | 217 ft | 12 kts | 37° |
| 2026-05-06 13:13 | 53.42874 | -6.24952 | 216 ft | 13 kts | 47° |
| 2026-05-06 13:13 | 53.42896 | -6.24899 | 210 ft | 2 kts | 82° |
| 2026-05-06 13:13 | 53.42893 | -6.24870 | 210 ft | 3 kts | 109° |
| 2026-05-06 13:13 | 53.42876 | -6.24838 | 213 ft | 4 kts | 132° |
| 2026-05-06 13:14 | 53.42865 | -6.24818 | 210 ft | 1 kts | 134° |
| 2026-05-06 13:14 | 53.42862 | -6.24814 | 210 ft | 0 kts | 134° |